Overview Statistics Trail Chart Weather Telemetry Raw packets
 

This is the latest recevied weather packets stored in our database for station/object SQ5AAG-2. If no packets are shown the sender has not sent any weather packets the latest 10 day(s).

<< 102 103 104 105 106 107 108 >>
Time Temp. Humidity Pressure Rain* Wind** Luminosity Snow
1787830795 24.44° C 43% 1008.9 hPa 0 mm - - -
1787830711 22.22° C 50% 1009.4 hPa 0 mm - - -
1787830602 24.44° C 43% 1008.9 hPa 0 mm - - -
1787830303 24.44° C 42% 1009.2 hPa 0 mm - - -
1787830002 24.44° C 43% 1009.2 hPa 0 mm - - -
1787829908 22.22° C 50% 1009.4 hPa 0 mm - - -
1787829701 24.44° C 44% 1009.2 hPa 0 mm - - -
1787829401 23.89° C 44% 1009.1 hPa 0 mm - - -
1787829100 23.33° C 45% 1009.2 hPa 0 mm - - -
1787828978 21.67° C 52% 1009.3 hPa 0 mm - - -
1787828801 23.33° C 46% 1009.2 hPa 0 mm - - -
1787828597 21.67° C 51% 1009.4 hPa 0 mm - - -
1787828500 23.33° C 45% 1009.2 hPa 0 mm - - -
1787828295 21.67° C 51% 1009.6 hPa 0 mm - - -
1787828200 23.33° C 45% 1009.3 hPa 0 mm - - -
1787827943 21.67° C 51% 1009.4 hPa 0 mm - - -
1787827900 23.33° C 44% 1009.2 hPa 0 mm - - -
1787827601 23.89° C 45% 1009.3 hPa 0 mm - - -
1787827584 22.22° C 52% 1009.5 hPa 0 mm - - -
1787827299 24.44° C 44% 1009.3 hPa 0 mm - - -
1787827217 21.67° C 52% 1009.1 hPa 0 mm - - -
1787826998 24.44° C 45% 1009.4 hPa 0 mm - - -
1787826947 21.67° C 52% 1009.3 hPa 0 mm - - -
1787826698 24.44° C 45% 1009.4 hPa 0 mm - - -
1787826611 21.67° C 52% 1009.4 hPa 0 mm - - -

* Rain latest hour (hover to see other rain measurements)
** Current wind speed in m/s (hover to see current wind gust speed)